createdAt,value
2022-08-08T00:00:53.803Z,14.23
2022-08-08T00:00:55.784Z,14.75
2022-08-08T00:02:32.864Z,13.20
2022-08-08T00:03:50.576Z,14.10
2022-08-08T00:05:12.963Z,13.73
2022-08-08T00:06:38.220Z,13.90
2022-08-08T00:07:51.584Z,14.45
2022-08-08T00:09:02.850Z,16.42
2022-08-08T00:10:10.802Z,17.20
2022-08-08T00:11:27.870Z,14.35
2022-08-08T00:13:03.157Z,13.80
2022-08-08T00:14:59.017Z,14.93
2022-08-08T00:16:27.039Z,14.60
2022-08-08T00:18:04.497Z,14.90
2022-08-08T00:19:51.223Z,15.27
2022-08-08T00:20:57.738Z,15.07
2022-08-08T00:22:10.602Z,14.90
2022-08-08T00:23:28.524Z,16.48
2022-08-08T00:24:52.416Z,14.80
2022-08-08T00:25:59.301Z,14.25
2022-08-08T00:28:34.439Z,16.40
2022-08-08T00:30:05.993Z,14.65
2022-08-08T00:32:20.178Z,13.13
2022-08-08T00:33:11.896Z,14.57
2022-08-08T00:34:57.082Z,14.88
2022-08-08T00:36:05.544Z,14.18
2022-08-08T00:38:01.204Z,15.73
2022-08-08T00:41:05.939Z,16.00
2022-08-08T00:41:09.056Z,15.82
2022-08-08T00:42:30.420Z,17.10
2022-08-08T00:44:00.994Z,15.50
2022-08-08T00:45:44.101Z,15.65
2022-08-08T00:47:14.243Z,20.33
2022-08-08T00:49:01.068Z,18.75
2022-08-08T00:50:24.167Z,16.00
2022-08-08T00:51:48.092Z,16.08
2022-08-08T00:53:43.611Z,15.23
2022-08-08T00:55:17.617Z,18.20
2022-08-08T00:57:09.417Z,14.38
2022-08-08T00:58:32.558Z,14.63
2022-08-08T00:59:50.783Z,14.82
2022-08-08T01:01:37.487Z,15.43
2022-08-08T01:03:58.446Z,16.58
2022-08-08T01:05:06.185Z,14.52
2022-08-08T01:06:28.338Z,14.57
2022-08-08T01:08:01.053Z,16.00
2022-08-08T01:09:59.065Z,13.85
2022-08-08T01:11:48.447Z,14.05
2022-08-08T01:13:16.888Z,14.50
2022-08-08T01:14:54.658Z,13.95
2022-08-08T01:16:40.836Z,15.10
2022-08-08T01:17:53.795Z,14.60
2022-08-08T01:19:42.282Z,14.18
2022-08-08T01:20:44.224Z,15.65
2022-08-08T01:22:09.949Z,14.45
2022-08-08T01:24:02.821Z,14.75
2022-08-08T01:25:26.268Z,16.50
2022-08-08T01:26:49.111Z,17.50
2022-08-08T01:28:15.714Z,17.00
2022-08-08T01:29:35.544Z,16.17
2022-08-08T01:31:10.479Z,16.70
2022-08-08T01:32:37.019Z,15.20
2022-08-08T01:34:00.816Z,18.20
2022-08-08T01:35:38.531Z,17.60
2022-08-08T01:37:56.975Z,15.05
2022-08-08T01:39:08.128Z,16.75
2022-08-08T01:40:34.852Z,21.08
2022-08-08T01:42:16.182Z,17.08
2022-08-08T01:43:44.658Z,15.18
2022-08-08T01:45:27.559Z,15.20
2022-08-08T01:46:55.122Z,15.05
2022-08-08T01:48:31.074Z,16.10
2022-08-08T01:50:20.024Z,15.70
2022-08-08T01:52:33.643Z,15.10
2022-08-08T01:54:57.546Z,17.25
2022-08-08T01:56:29.239Z,14.57
2022-08-08T01:58:10.611Z,14.63
2022-08-08T01:59:19.759Z,14.95
2022-08-08T02:00:27.949Z,16.13
2022-08-08T02:02:04.955Z,15.20
2022-08-08T02:03:54.806Z,14.27
2022-08-08T02:05:56.435Z,14.00
2022-08-08T02:07:00.986Z,15.63
2022-08-08T02:08:33.996Z,16.48
2022-08-08T02:10:04.072Z,16.80
2022-08-08T02:11:52.659Z,17.33
2022-08-08T02:13:54.546Z,16.27
2022-08-08T02:15:17.924Z,17.80
2022-08-08T02:16:48.663Z,19.02
2022-08-08T02:18:11.973Z,18.58
2022-08-08T02:19:57.065Z,18.85
2022-08-08T02:21:13.241Z,17.20
2022-08-08T02:22:54.925Z,17.98
2022-08-08T02:24:24.779Z,18.00
2022-08-08T02:27:18.292Z,17.98
2022-08-08T02:28:35.410Z,18.00
2022-08-08T02:29:51.668Z,16.33
2022-08-08T02:31:43.944Z,17.77
2022-08-08T02:32:39.460Z,20.33
2022-08-08T02:34:09.292Z,18.50
2022-08-08T02:35:22.475Z,17.55
2022-08-08T02:36:51.078Z,18.92
2022-08-08T02:38:15.501Z,18.73
2022-08-08T02:40:04.465Z,19.23
2022-08-08T02:41:59.133Z,20.08
2022-08-08T02:44:36.848Z,18.63
2022-08-08T02:44:59.246Z,20.80
2022-08-08T02:46:45.809Z,19.50
2022-08-08T02:49:38.080Z,20.88
2022-08-08T02:50:57.932Z,23.52
2022-08-08T02:52:35.398Z,21.02
2022-08-08T02:54:03.931Z,19.98
2022-08-08T02:55:42.176Z,18.77
2022-08-08T02:56:48.964Z,21.00
2022-08-08T02:58:32.768Z,20.88
2022-08-08T02:59:58.014Z,20.90
2022-08-08T03:01:24.448Z,21.73
2022-08-08T03:02:29.955Z,20.58
2022-08-08T03:05:04.439Z,20.70
2022-08-08T03:06:04.147Z,22.85
2022-08-08T03:07:25.618Z,19.55
2022-08-08T03:09:02.391Z,20.30
2022-08-08T03:10:37.927Z,21.80
2022-08-08T03:12:14.432Z,23.58
2022-08-08T03:15:58.742Z,24.67
2022-08-08T03:15:59.848Z,22.42
2022-08-08T03:17:07.306Z,24.17
2022-08-08T03:18:32.032Z,21.98
2022-08-08T03:20:13.803Z,24.25
2022-08-08T03:21:18.827Z,25.48
2022-08-08T03:22:38.098Z,23.95
2022-08-08T03:23:59.381Z,24.63
2022-08-08T03:25:14.513Z,24.58
2022-08-08T03:26:25.328Z,27.92
2022-08-08T03:27:41.842Z,22.67
2022-08-08T03:28:53.810Z,23.25
2022-08-08T03:30:04.925Z,23.55
2022-08-08T03:31:52.691Z,24.70
2022-08-08T03:33:58.409Z,23.45
2022-08-08T03:34:45.176Z,20.70
2022-08-08T03:35:51.002Z,24.77
2022-08-08T03:36:57.204Z,21.53
2022-08-08T03:38:55.863Z,20.17
2022-08-08T03:39:24.848Z,23.75
2022-08-08T03:40:29.290Z,21.02
2022-08-08T03:42:27.995Z,23.83
2022-08-08T03:43:18.350Z,22.88
2022-08-08T03:44:37.464Z,20.02
2022-08-08T03:46:05.005Z,22.38
2022-08-08T03:47:19.626Z,21.50
2022-08-08T03:49:09.957Z,18.40
2022-08-08T03:50:00.067Z,20.27
2022-08-08T03:51:09.309Z,17.88
2022-08-08T03:52:18.648Z,18.05
2022-08-08T03:53:24.004Z,19.15
2022-08-08T03:55:01.801Z,17.33
2022-08-08T03:56:09.757Z,18.17
2022-08-08T03:58:31.854Z,15.63
2022-08-08T03:58:47.900Z,17.02
2022-08-08T04:00:02.575Z,17.63
2022-08-08T04:02:15.998Z,16.42
2022-08-08T04:03:58.427Z,15.60
2022-08-08T04:05:10.322Z,17.00
2022-08-08T04:06:18.124Z,15.25
2022-08-08T04:07:22.121Z,15.50
2022-08-08T04:08:33.155Z,15.65
2022-08-08T04:10:03.078Z,15.45
2022-08-08T04:11:11.233Z,14.38
2022-08-08T04:12:33.344Z,13.93
2022-08-08T04:14:33.109Z,15.10
2022-08-08T04:15:05.741Z,15.52
2022-08-08T04:16:13.401Z,13.57
2022-08-08T04:17:58.542Z,14.15
2022-08-08T04:19:05.945Z,12.40
2022-08-08T04:20:34.354Z,13.45
2022-08-08T04:21:41.194Z,11.07
2022-08-08T04:24:05.453Z,12.77
2022-08-08T04:25:22.833Z,13.30
2022-08-08T04:26:40.112Z,14.80
2022-08-08T04:28:34.129Z,13.40
2022-08-08T04:29:21.810Z,13.05
2022-08-08T04:30:24.381Z,11.10
2022-08-08T04:31:58.209Z,11.93
2022-08-08T04:32:53.864Z,11.27
2022-08-08T04:34:00.700Z,10.30
2022-08-08T04:35:04.101Z,11.68
2022-08-08T04:36:16.328Z,11.50
2022-08-08T04:37:31.879Z,10.70
2022-08-08T04:38:42.799Z,11.68
2022-08-08T04:40:05.816Z,11.90
2022-08-08T04:41:36.748Z,10.05
2022-08-08T04:42:46.629Z,10.18
2022-08-08T04:44:03.650Z,12.40
2022-08-08T04:45:07.499Z,11.93
2022-08-08T04:46:12.285Z,12.10
2022-08-08T04:47:17.622Z,10.93
2022-08-08T04:48:21.726Z,11.32
2022-08-08T04:49:28.917Z,10.50
2022-08-08T04:50:48.838Z,12.82
2022-08-08T04:51:58.754Z,9.75
2022-08-08T04:53:52.173Z,13.90
2022-08-08T04:54:42.089Z,10.25
2022-08-08T04:55:55.494Z,9.73
2022-08-08T04:57:01.035Z,10.27
2022-08-08T04:58:07.113Z,18.65
2022-08-08T04:59:13.485Z,9.27
2022-08-08T05:00:19.679Z,9.95
2022-08-08T05:01:25.076Z,10.13
2022-08-08T05:02:42.306Z,9.32
2022-08-08T05:04:08.155Z,11.60
2022-08-08T05:05:19.937Z,11.87
2022-08-08T05:06:25.638Z,11.73
2022-08-08T05:07:37.735Z,10.05
2022-08-08T05:08:44.655Z,10.43
2022-08-08T05:09:47.916Z,7.95
2022-08-08T05:10:50.193Z,9.13
2022-08-08T05:11:57.018Z,9.30
2022-08-08T05:13:02.935Z,10.20
2022-08-08T05:15:22.369Z,11.38
2022-08-08T05:16:51.480Z,11.02
2022-08-08T05:17:54.275Z,8.77
2022-08-08T05:18:59.027Z,10.68
2022-08-08T05:20:10.852Z,11.13
2022-08-08T05:21:19.184Z,10.23
2022-08-08T05:22:23.542Z,12.63
2022-08-08T05:23:26.951Z,10.48
2022-08-08T05:24:32.765Z,9.02
2022-08-08T05:25:41.183Z,8.48
2022-08-08T05:26:46.597Z,9.00
2022-08-08T05:28:02.781Z,9.73
2022-08-08T05:29:13.656Z,11.38
2022-08-08T05:30:28.291Z,8.65
2022-08-08T05:32:03.874Z,10.35
2022-08-08T05:32:57.671Z,9.48
2022-08-08T05:34:00.322Z,10.05
2022-08-08T05:35:05.108Z,8.40
2022-08-08T05:36:25.464Z,11.02
2022-08-08T05:37:49.203Z,9.57
2022-08-08T05:39:00.132Z,10.82
2022-08-08T05:40:06.670Z,11.75
2022-08-08T05:41:14.436Z,10.48
2022-08-08T05:42:19.363Z,10.65
2022-08-08T05:44:02.498Z,12.57
2022-08-08T05:44:51.577Z,10.35
2022-08-08T05:46:03.305Z,11.35
2022-08-08T05:47:10.712Z,10.30
2022-08-08T05:48:17.817Z,12.38
2022-08-08T05:49:31.732Z,14.60
2022-08-08T05:50:36.781Z,12.02
2022-08-08T05:51:49.100Z,13.32
2022-08-08T05:52:55.586Z,11.95
2022-08-08T05:54:27.039Z,10.15
2022-08-08T05:55:20.774Z,11.05
2022-08-08T05:56:29.786Z,10.25
2022-08-08T05:58:03.790Z,12.57
2022-08-08T05:59:05.470Z,11.18
2022-08-08T06:00:23.085Z,12.15
2022-08-08T06:01:56.898Z,12.10
2022-08-08T06:03:17.535Z,16.33
2022-08-08T06:04:30.211Z,20.08
2022-08-08T06:05:36.332Z,13.30
2022-08-08T06:06:48.095Z,11.85
2022-08-08T06:08:02.665Z,12.55
2022-08-08T06:10:00.618Z,13.93
2022-08-08T06:10:34.666Z,13.70
2022-08-08T06:11:46.033Z,16.48
2022-08-08T06:12:51.383Z,13.88
2022-08-08T06:13:53.530Z,13.45
2022-08-08T06:15:00.509Z,15.93
2022-08-08T06:16:07.114Z,15.95
2022-08-08T06:18:18.450Z,15.10
2022-08-08T06:19:00.836Z,15.33
2022-08-08T06:20:11.685Z,15.30
2022-08-08T06:21:33.255Z,13.43
2022-08-08T06:22:42.224Z,15.48
2022-08-08T06:24:05.171Z,14.18
2022-08-08T06:25:17.975Z,15.20
2022-08-08T06:26:39.010Z,17.15
2022-08-08T06:27:54.085Z,14.23
2022-08-08T06:29:26.549Z,15.85
2022-08-08T06:30:30.895Z,17.00
2022-08-08T06:32:08.954Z,13.95
2022-08-08T06:33:06.403Z,14.00
2022-08-08T06:34:27.310Z,15.48
2022-08-08T06:36:07.129Z,13.95
2022-08-08T06:37:01.437Z,15.35
2022-08-08T06:38:29.021Z,15.73
2022-08-08T06:40:39.002Z,16.30
2022-08-08T06:41:57.574Z,19.30
2022-08-08T06:43:09.670Z,17.85
2022-08-08T06:44:29.142Z,15.50
2022-08-08T06:45:38.265Z,14.73
2022-08-08T06:47:52.511Z,17.27
2022-08-08T06:49:07.908Z,15.65
2022-08-08T06:50:17.555Z,18.52
2022-08-08T06:51:48.914Z,20.70
2022-08-08T06:53:13.878Z,17.40
2022-08-08T06:54:22.686Z,17.92
2022-08-08T06:55:26.138Z,16.50
2022-08-08T06:56:32.407Z,20.35
2022-08-08T06:57:53.701Z,19.85
2022-08-08T06:59:00.444Z,18.20
2022-08-08T07:00:11.308Z,18.95
2022-08-08T07:02:17.418Z,18.75
2022-08-08T07:03:00.638Z,16.02
2022-08-08T07:04:39.782Z,16.27
2022-08-08T07:05:39.961Z,19.00
2022-08-08T07:06:51.272Z,14.73
2022-08-08T07:08:00.110Z,17.90
2022-08-08T07:09:45.519Z,16.17
2022-08-08T07:10:59.711Z,18.45
2022-08-08T07:12:08.843Z,17.42
2022-08-08T07:13:18.015Z,18.20
2022-08-08T07:14:42.885Z,14.90
2022-08-08T07:16:10.632Z,19.75
2022-08-08T07:17:40.293Z,18.58
2022-08-08T07:19:10.011Z,20.15
2022-08-08T07:20:21.313Z,18.08
2022-08-08T07:21:44.478Z,16.40
2022-08-08T07:22:50.258Z,15.95
2022-08-08T07:24:22.953Z,17.58
2022-08-08T07:25:35.001Z,18.30
2022-08-08T07:26:41.873Z,15.32
2022-08-08T07:28:02.626Z,16.38
2022-08-08T07:30:00.344Z,16.77
2022-08-08T07:30:34.436Z,19.52
2022-08-08T07:31:36.774Z,19.60
2022-08-08T07:32:42.644Z,15.98
2022-08-08T07:33:58.919Z,15.30
2022-08-08T07:35:06.134Z,16.25
2022-08-08T07:36:15.667Z,17.08
2022-08-08T07:37:22.925Z,17.80
2022-08-08T07:38:34.839Z,17.05
2022-08-08T07:39:56.200Z,14.70
2022-08-08T07:41:05.039Z,15.27
2022-08-08T07:42:18.778Z,14.75
2022-08-08T07:43:35.119Z,21.05
2022-08-08T07:44:43.788Z,16.30
2022-08-08T07:46:05.758Z,15.18
2022-08-08T07:47:13.633Z,12.88
2022-08-08T07:48:21.471Z,14.70
2022-08-08T07:49:26.338Z,15.07
2022-08-08T07:50:32.802Z,14.70
2022-08-08T07:51:53.306Z,17.92
2022-08-08T07:53:23.901Z,15.82
2022-08-08T07:54:58.779Z,19.77
2022-08-08T07:56:02.564Z,14.25
2022-08-08T07:57:20.045Z,14.93
2022-08-08T07:58:39.250Z,19.40
2022-08-08T07:59:59.248Z,15.50
2022-08-08T08:01:21.343Z,15.52
2022-08-08T08:02:44.513Z,16.42
2022-08-08T08:03:59.366Z,14.98
2022-08-08T08:05:06.389Z,17.65
2022-08-08T08:06:19.702Z,12.10
2022-08-08T08:07:32.082Z,15.13
2022-08-08T08:08:54.559Z,18.17
2022-08-08T08:10:05.896Z,18.55
2022-08-08T08:11:18.437Z,16.63
2022-08-08T08:12:35.077Z,14.18
2022-08-08T08:14:07.685Z,13.38
2022-08-08T08:15:23.432Z,18.08
2022-08-08T08:16:32.272Z,17.73
2022-08-08T08:17:47.640Z,18.10
2022-08-08T08:18:58.473Z,22.48
2022-08-08T08:20:10.171Z,17.70
2022-08-08T08:21:19.028Z,17.60
2022-08-08T08:22:25.529Z,15.48
2022-08-08T08:23:40.779Z,16.13
2022-08-08T08:24:46.387Z,18.65
2022-08-08T08:25:55.264Z,16.33
2022-08-08T08:27:02.558Z,15.25
2022-08-08T08:28:05.253Z,17.38
2022-08-08T08:29:13.914Z,16.33
2022-08-08T08:30:20.847Z,20.23
2022-08-08T08:31:29.246Z,18.90
2022-08-08T08:32:51.121Z,16.02
2022-08-08T08:33:55.109Z,16.67
2022-08-08T08:34:58.012Z,14.95
2022-08-08T08:36:19.241Z,15.82
2022-08-08T08:37:30.506Z,12.50
2022-08-08T08:38:33.932Z,16.13
2022-08-08T08:40:01.087Z,14.98
2022-08-08T08:41:17.693Z,14.05
2022-08-08T08:42:31.851Z,13.60
2022-08-08T08:44:51.333Z,14.32
2022-08-08T08:45:57.352Z,15.50
2022-08-08T08:47:00.946Z,14.95
2022-08-08T08:48:05.415Z,19.40
2022-08-08T08:49:12.725Z,14.93
2022-08-08T08:50:34.064Z,14.00
2022-08-08T08:51:51.514Z,14.10
2022-08-08T08:52:59.872Z,13.02
2022-08-08T08:54:08.338Z,16.75
2022-08-08T08:55:16.202Z,15.23
2022-08-08T08:56:25.714Z,13.07
2022-08-08T08:57:37.918Z,15.38
2022-08-08T08:58:46.516Z,15.20
2022-08-08T09:00:04.912Z,15.63
2022-08-08T09:01:13.049Z,13.70
2022-08-08T09:02:22.343Z,15.57
2022-08-08T09:03:31.526Z,15.93
2022-08-08T09:04:50.381Z,13.75
2022-08-08T09:05:56.392Z,13.52
2022-08-08T09:07:02.630Z,14.43
2022-08-08T09:08:20.566Z,17.10
2022-08-08T09:09:39.610Z,21.13
2022-08-08T09:10:52.585Z,18.80
2022-08-08T09:12:01.970Z,17.50
2022-08-08T09:13:10.682Z,14.93
2022-08-08T09:14:13.649Z,14.73
2022-08-08T09:15:18.658Z,15.23
2022-08-08T09:16:40.270Z,16.10
2022-08-08T09:17:55.771Z,15.70
2022-08-08T09:19:01.132Z,14.57
2022-08-08T09:22:00.138Z,17.33
2022-08-08T09:22:02.630Z,13.80
2022-08-08T09:22:50.023Z,13.50
2022-08-08T09:23:54.909Z,17.15
2022-08-08T09:24:58.849Z,16.15
2022-08-08T09:26:53.004Z,16.83
2022-08-08T09:27:58.532Z,15.90
2022-08-08T09:29:08.263Z,15.52
2022-08-08T09:30:17.842Z,17.73
2022-08-08T09:31:56.594Z,17.85
2022-08-08T09:33:54.094Z,15.93
2022-08-08T09:34:34.536Z,16.17
2022-08-08T09:35:50.196Z,13.70
2022-08-08T09:37:58.961Z,20.55
2022-08-08T09:38:52.544Z,15.13
2022-08-08T09:40:01.008Z,16.42
2022-08-08T09:41:08.734Z,15.35
2022-08-08T09:42:22.089Z,14.38
2022-08-08T09:44:04.696Z,14.65
2022-08-08T09:45:20.733Z,20.35
2022-08-08T09:46:31.239Z,17.98
2022-08-08T09:48:03.844Z,14.18
2022-08-08T09:49:18.573Z,16.20
2022-08-08T09:50:28.473Z,18.10
2022-08-08T09:52:01.671Z,15.07
2022-08-08T09:53:00.316Z,16.40
2022-08-08T09:54:09.385Z,16.48
2022-08-08T09:55:51.636Z,18.95
2022-08-08T09:56:44.627Z,16.65
2022-08-08T09:57:55.889Z,17.02
2022-08-08T09:59:25.943Z,22.15
2022-08-08T10:00:49.920Z,15.57
2022-08-08T10:01:58.970Z,16.33
2022-08-08T10:03:06.000Z,18.70
2022-08-08T10:04:14.908Z,18.45
2022-08-08T10:05:39.683Z,17.10
2022-08-08T10:06:45.114Z,17.88
2022-08-08T10:08:00.603Z,17.70
2022-08-08T10:09:03.514Z,19.48
2022-08-08T10:10:06.950Z,16.55
2022-08-08T10:12:22.277Z,17.38
2022-08-08T10:12:38.638Z,17.83
2022-08-08T10:13:59.659Z,18.48
2022-08-08T10:15:17.600Z,15.52
2022-08-08T10:16:21.897Z,20.45
2022-08-08T10:17:57.266Z,16.33
2022-08-08T10:19:04.149Z,17.08
2022-08-08T10:20:07.194Z,15.13
2022-08-08T10:21:25.713Z,15.63
2022-08-08T10:22:39.039Z,20.50
2022-08-08T10:24:04.615Z,16.20
2022-08-08T10:25:27.859Z,16.08
2022-08-08T10:26:57.310Z,16.20
2022-08-08T10:28:06.781Z,14.98
2022-08-08T10:29:25.010Z,16.52
2022-08-08T10:30:57.416Z,14.65
2022-08-08T10:32:16.465Z,16.75
2022-08-08T10:33:18.901Z,17.17
2022-08-08T10:34:51.101Z,16.45
2022-08-08T10:36:08.998Z,13.88
2022-08-08T10:37:34.582Z,13.63
2022-08-08T10:38:40.530Z,13.68
2022-08-08T10:39:54.459Z,12.60
2022-08-08T10:41:02.816Z,13.48
2022-08-08T10:42:16.831Z,17.48
2022-08-08T10:43:22.924Z,15.73
2022-08-08T10:44:36.504Z,15.43
2022-08-08T10:45:56.194Z,13.60
2022-08-08T10:47:20.578Z,14.10
2022-08-08T10:48:57.043Z,16.58
2022-08-08T10:51:47.561Z,13.30
2022-08-08T10:53:01.868Z,13.52
2022-08-08T10:54:25.311Z,14.38
2022-08-08T10:55:40.561Z,13.23
2022-08-08T10:56:44.204Z,11.85
2022-08-08T10:57:53.212Z,16.40
2022-08-08T10:59:08.353Z,13.75
2022-08-08T11:01:33.636Z,13.32
2022-08-08T11:02:37.459Z,11.45
2022-08-08T11:04:00.424Z,12.88
2022-08-08T11:05:15.084Z,14.20
2022-08-08T11:06:20.680Z,16.70
2022-08-08T11:08:30.010Z,13.43
2022-08-08T11:09:14.976Z,13.43
2022-08-08T11:10:28.534Z,13.25
2022-08-08T11:12:05.321Z,15.60
2022-08-08T11:13:29.123Z,13.35
2022-08-08T11:14:27.708Z,13.07
2022-08-08T11:15:31.241Z,14.10
2022-08-08T11:16:36.456Z,15.02
2022-08-08T11:17:59.589Z,13.35
2022-08-08T11:19:04.928Z,12.80
2022-08-08T11:20:11.101Z,14.32
2022-08-08T11:21:20.463Z,12.63
2022-08-08T11:22:27.330Z,13.13
2022-08-08T11:23:34.440Z,13.48
2022-08-08T11:24:37.699Z,13.65
2022-08-08T11:25:52.124Z,14.63
2022-08-08T11:26:58.154Z,15.90
2022-08-08T11:28:04.688Z,13.23
2022-08-08T11:29:08.736Z,13.25
2022-08-08T11:30:20.375Z,13.52
2022-08-08T11:31:46.738Z,13.60
2022-08-08T11:32:54.346Z,14.43
2022-08-08T11:34:22.802Z,15.65
2022-08-08T11:35:27.182Z,11.30
2022-08-08T11:36:42.033Z,11.30
2022-08-08T11:38:35.227Z,10.70
2022-08-08T11:39:11.028Z,12.40
2022-08-08T11:40:16.073Z,13.73
2022-08-08T11:41:33.777Z,11.43
2022-08-08T11:42:37.021Z,14.23
2022-08-08T11:43:42.165Z,13.23
2022-08-08T11:44:46.106Z,10.60
2022-08-08T11:46:10.016Z,11.27
2022-08-08T11:47:17.260Z,12.30
2022-08-08T11:48:20.975Z,13.27
2022-08-08T11:49:28.305Z,14.20
2022-08-08T11:50:36.189Z,10.32
2022-08-08T11:51:50.490Z,10.75
2022-08-08T11:52:57.991Z,10.77
2022-08-08T11:54:02.418Z,12.18
2022-08-08T11:55:18.735Z,12.32
2022-08-08T11:56:23.655Z,11.63
2022-08-08T11:57:30.241Z,10.95
2022-08-08T11:58:37.744Z,12.82
2022-08-08T12:00:00.245Z,12.32
2022-08-08T12:01:16.525Z,11.02
2022-08-08T12:02:36.973Z,13.32
2022-08-08T12:03:50.569Z,11.90
2022-08-08T12:05:13.279Z,12.70
2022-08-08T12:06:18.046Z,13.43
2022-08-08T12:07:21.406Z,10.98
2022-08-08T12:08:37.714Z,15.75
2022-08-08T12:09:57.072Z,10.25
2022-08-08T12:11:04.708Z,11.63
2022-08-08T12:12:07.618Z,12.82
2022-08-08T12:13:14.239Z,10.27
2022-08-08T12:14:23.944Z,10.05
2022-08-08T12:15:49.040Z,9.95
2022-08-08T12:16:54.503Z,11.68
2022-08-08T12:17:57.135Z,10.63
2022-08-08T12:19:10.620Z,9.68
2022-08-08T12:20:14.461Z,8.90
2022-08-08T12:22:00.610Z,13.80
2022-08-08T12:22:53.160Z,12.10
2022-08-08T12:24:04.689Z,9.75
2022-08-08T12:25:07.494Z,9.75
2022-08-08T12:26:17.259Z,13.55
2022-08-08T12:27:45.072Z,11.88
2022-08-08T12:28:57.834Z,9.30
2022-08-08T12:30:02.168Z,9.90
2022-08-08T12:31:08.760Z,9.68
2022-08-08T12:32:19.655Z,10.45
2022-08-08T12:33:37.073Z,14.43
2022-08-08T12:34:50.381Z,9.27
2022-08-08T12:35:55.791Z,10.27
2022-08-08T12:37:05.559Z,11.75
2022-08-08T12:38:17.831Z,12.80
2022-08-08T12:40:01.070Z,11.48
2022-08-08T12:40:57.794Z,11.27
2022-08-08T12:42:04.742Z,11.13
2022-08-08T12:43:07.785Z,10.00
2022-08-08T12:44:32.076Z,12.48
2022-08-08T12:45:57.988Z,11.60
2022-08-08T12:47:12.822Z,12.07
2022-08-08T12:48:36.948Z,10.25
2022-08-08T12:49:43.442Z,10.77
2022-08-08T12:50:52.125Z,10.32
2022-08-08T12:52:00.559Z,11.10
2022-08-08T12:53:03.511Z,9.60
2022-08-08T12:54:24.340Z,9.43
2022-08-08T12:55:35.375Z,12.68
2022-08-08T12:56:50.436Z,10.85
2022-08-08T12:57:56.489Z,11.25
2022-08-08T12:58:59.531Z,10.57
2022-08-08T13:00:12.132Z,9.48
2022-08-08T13:01:17.174Z,11.27
2022-08-08T13:02:29.581Z,10.30
2022-08-08T13:03:34.349Z,9.68
2022-08-08T13:04:36.944Z,9.57
2022-08-08T13:06:05.560Z,9.27
2022-08-08T13:07:06.958Z,8.40
2022-08-08T13:08:17.027Z,12.77
2022-08-08T13:10:04.890Z,11.63
2022-08-08T13:12:18.053Z,9.77
2022-08-08T13:13:05.545Z,10.15
2022-08-08T13:14:15.621Z,8.02
2022-08-08T13:15:22.422Z,7.13
2022-08-08T13:16:26.269Z,8.90
2022-08-08T13:18:09.484Z,8.50
2022-08-08T13:19:05.478Z,8.90
2022-08-08T13:20:27.122Z,9.35
2022-08-08T13:23:26.899Z,9.75
2022-08-08T13:24:24.582Z,7.85
2022-08-08T13:25:38.736Z,8.48
2022-08-08T13:26:41.186Z,9.25
2022-08-08T13:27:52.656Z,8.77
2022-08-08T13:28:56.637Z,9.02
2022-08-08T13:30:01.875Z,7.50
2022-08-08T13:31:05.136Z,9.43
2022-08-08T13:32:07.788Z,7.68
2022-08-08T13:33:18.429Z,9.60
2022-08-08T13:34:33.077Z,7.90
2022-08-08T13:35:43.133Z,8.57
2022-08-08T13:36:49.393Z,6.32
2022-08-08T13:38:06.416Z,8.15
2022-08-08T13:39:18.136Z,8.20
2022-08-08T13:40:27.395Z,7.00
2022-08-08T13:41:51.878Z,8.35
2022-08-08T13:42:58.447Z,7.70
2022-08-08T13:44:00.662Z,6.22
2022-08-08T13:45:04.525Z,5.45
2022-08-08T13:46:26.824Z,7.45
2022-08-08T13:47:30.707Z,6.72
2022-08-08T13:48:44.219Z,8.15
2022-08-08T13:50:36.296Z,8.52
2022-08-08T13:52:02.566Z,7.20
2022-08-08T13:53:23.100Z,7.95
2022-08-08T13:54:31.345Z,7.00
2022-08-08T13:55:36.648Z,8.02
2022-08-08T13:56:53.548Z,7.45
2022-08-08T13:58:08.250Z,6.85
2022-08-08T13:59:32.590Z,7.10
2022-08-08T14:00:45.164Z,7.28
2022-08-08T14:01:57.754Z,5.80
2022-08-08T14:03:07.663Z,8.55
2022-08-08T14:04:26.108Z,9.07
2022-08-08T14:05:34.283Z,8.50
2022-08-08T14:06:44.890Z,6.43
2022-08-08T14:07:53.128Z,6.30
2022-08-08T14:08:59.179Z,7.75
2022-08-08T14:10:11.823Z,6.65
2022-08-08T14:11:21.652Z,6.17
2022-08-08T14:12:29.456Z,6.15
2022-08-08T14:13:34.150Z,5.25
2022-08-08T14:14:45.078Z,6.38
2022-08-08T14:15:50.344Z,7.93
2022-08-08T14:16:55.257Z,6.78
2022-08-08T14:18:36.794Z,6.40
2022-08-08T14:19:58.248Z,8.55
2022-08-08T14:21:02.842Z,6.20
2022-08-08T14:22:26.299Z,5.28
2022-08-08T14:24:06.760Z,8.63
2022-08-08T14:25:00.793Z,8.27
2022-08-08T14:26:11.085Z,8.57
2022-08-08T14:27:27.069Z,6.85
2022-08-08T14:28:31.080Z,6.60
2022-08-08T14:29:40.479Z,8.05
2022-08-08T14:30:47.625Z,5.75
2022-08-08T14:32:09.063Z,5.57
2022-08-08T14:33:36.325Z,8.98
2022-08-08T14:34:38.887Z,13.15
2022-08-08T14:35:42.001Z,10.30
2022-08-08T14:36:53.513Z,9.07
2022-08-08T14:38:05.973Z,8.63
2022-08-08T14:39:20.199Z,6.95
2022-08-08T14:40:29.515Z,8.30
2022-08-08T14:41:53.198Z,5.95
2022-08-08T14:43:01.398Z,8.00
2022-08-08T14:44:11.125Z,9.45
2022-08-08T14:45:15.319Z,6.72
2022-08-08T14:46:32.630Z,7.18
2022-08-08T14:47:52.158Z,7.80
2022-08-08T14:48:59.025Z,5.70
2022-08-08T14:50:22.554Z,4.93
2022-08-08T14:51:51.836Z,6.03
2022-08-08T14:53:06.059Z,7.22
2022-08-08T14:54:09.009Z,7.65
2022-08-08T14:55:13.131Z,6.97
2022-08-08T14:56:15.602Z,6.95
2022-08-08T14:57:17.729Z,6.95
2022-08-08T14:58:22.582Z,8.63
2022-08-08T14:59:43.538Z,6.30
2022-08-08T15:00:54.444Z,6.45
2022-08-08T15:01:56.883Z,7.85
2022-08-08T15:03:14.873Z,5.85
2022-08-08T15:04:18.745Z,5.68
2022-08-08T15:05:34.005Z,7.78
2022-08-08T15:06:45.675Z,9.32
2022-08-08T15:07:53.810Z,7.13
2022-08-08T15:09:02.583Z,7.43
2022-08-08T15:10:09.921Z,5.82
2022-08-08T15:11:19.037Z,5.65
2022-08-08T15:12:30.288Z,5.70
2022-08-08T15:13:41.028Z,8.00
2022-08-08T15:14:58.017Z,7.30
2022-08-08T15:16:02.667Z,5.88
2022-08-08T15:17:05.615Z,8.05
2022-08-08T15:18:10.666Z,5.25
2022-08-08T15:19:15.178Z,6.07
2022-08-08T15:20:18.683Z,5.15
2022-08-08T15:21:21.398Z,7.72
2022-08-08T15:22:24.091Z,4.88
2022-08-08T15:23:34.645Z,4.60
2022-08-08T15:24:37.304Z,5.97
2022-08-08T15:25:40.022Z,8.23
2022-08-08T15:26:46.695Z,4.95
2022-08-08T15:28:04.079Z,9.55
2022-08-08T15:29:18.485Z,5.45
2022-08-08T15:30:24.871Z,7.50
2022-08-08T15:32:03.564Z,5.70
2022-08-08T15:32:51.290Z,7.82
2022-08-08T15:33:59.356Z,7.20
2022-08-08T15:35:07.317Z,5.90
2022-08-08T15:36:10.000Z,7.93
2022-08-08T15:37:14.773Z,6.95
2022-08-08T15:38:20.529Z,7.15
2022-08-08T15:39:26.095Z,5.43
2022-08-08T15:40:30.594Z,4.65
2022-08-08T15:41:43.822Z,6.07
2022-08-08T15:42:47.009Z,6.03
2022-08-08T15:44:00.642Z,8.10
2022-08-08T15:45:03.976Z,5.93
2022-08-08T15:46:06.563Z,5.90
2022-08-08T15:47:16.306Z,6.38
2022-08-08T15:48:20.970Z,8.75
2022-08-08T15:49:27.612Z,5.28
2022-08-08T15:50:52.447Z,5.95
2022-08-08T15:51:55.005Z,5.00
2022-08-08T15:52:58.809Z,6.63
2022-08-08T15:54:00.999Z,7.22
2022-08-08T15:55:06.265Z,5.28
2022-08-08T15:56:12.897Z,7.05
2022-08-08T15:57:17.049Z,13.93
2022-08-08T15:58:20.952Z,7.13
2022-08-08T16:00:05.661Z,6.90
2022-08-08T16:00:54.500Z,5.60
2022-08-08T16:02:00.491Z,5.80
2022-08-08T16:03:03.157Z,6.70
2022-08-08T16:04:06.031Z,5.85
2022-08-08T16:05:14.352Z,7.07
2022-08-08T16:06:28.891Z,5.57
2022-08-08T16:07:39.511Z,6.57
2022-08-08T16:13:01.152Z,5.50
2022-08-08T16:13:15.032Z,7.28
2022-08-08T16:13:15.124Z,7.78
2022-08-08T16:13:32.041Z,6.32
2022-08-08T16:14:32.732Z,6.03
2022-08-08T16:15:58.558Z,6.95
2022-08-08T16:17:07.312Z,6.88
2022-08-08T16:18:11.609Z,6.60
2022-08-08T16:19:19.305Z,5.47
2022-08-08T16:20:29.218Z,9.18
2022-08-08T16:21:59.979Z,5.35
2022-08-08T16:23:06.175Z,7.50
2022-08-08T16:24:13.712Z,7.47
2022-08-08T16:25:16.209Z,7.07
2022-08-08T16:26:19.328Z,6.05
2022-08-08T16:27:25.134Z,7.50
2022-08-08T16:28:35.303Z,5.70
2022-08-08T16:30:08.927Z,12.75
2022-08-08T16:31:00.271Z,12.93
2022-08-08T16:32:20.889Z,17.10
2022-08-08T16:33:29.658Z,12.65
2022-08-08T16:34:44.306Z,8.43
2022-08-08T16:35:49.638Z,5.35
2022-08-08T16:36:52.777Z,6.13
2022-08-08T16:37:55.281Z,8.38
2022-08-08T16:38:59.050Z,8.55
2022-08-08T16:40:03.807Z,6.65
2022-08-08T16:41:07.285Z,9.05
2022-08-08T16:42:17.665Z,9.30
2022-08-08T16:43:21.010Z,6.47
2022-08-08T16:44:27.657Z,6.72